Arleta, California
Current Conditions -  °F | °C
As of 8:53 AM on Tuesday 27 Jan 2015 (Local Time) from KBUR Reporting Station
Overcast Overcast  
Wind Chill: 15°   Ceiling: 6000
Heat Index: 15°   Visibility: 10mi
Dew Point: 12°   Wind: 0mph
Humidity: 83%   Direction: NA
Pressure: 30.2"   Gusts: NA
Location:  34.2574°N, 118.255°W
Report Text: KBUR 271653Z 00000KT 10SM OVC060 15/12 A3020 RMK AO2 SLP218 T01500122
Loading
Personal Weather Stations






























Interactive Weather Map New forecast layout! Learn more

10-Day Weather Forecast

Advertisements
Track Severe Weather on mobile